createdAt,value
2023-03-02T00:03:32.596Z,54.60
2023-03-02T00:08:35.803Z,54.68
2023-03-02T00:13:40.202Z,54.79
2023-03-02T00:18:43.058Z,54.84
2023-03-02T00:23:45.977Z,55.07
2023-03-02T00:28:50.124Z,55.15
2023-03-02T00:33:54.959Z,54.99
2023-03-02T00:38:58.215Z,55.46
2023-03-02T00:44:02.424Z,55.42
2023-03-02T00:49:05.208Z,55.60
2023-03-02T00:54:07.987Z,55.54
2023-03-02T00:59:26.183Z,55.69
2023-03-02T01:04:38.348Z,55.84
2023-03-02T01:09:44.680Z,55.98
2023-03-02T01:14:50.788Z,55.99
2023-03-02T01:19:55.258Z,55.94
2023-03-02T01:24:58.758Z,56.09
2023-03-02T01:30:03.012Z,56.33
2023-03-02T01:35:07.808Z,56.49
2023-03-02T01:40:14.089Z,56.63
2023-03-02T01:45:47.079Z,56.79
2023-03-02T01:50:54.824Z,56.76
2023-03-02T01:56:00.043Z,56.83
2023-03-02T02:01:05.782Z,56.89
2023-03-02T02:06:18.141Z,57.13
2023-03-02T02:11:21.119Z,57.31
2023-03-02T02:16:29.883Z,57.42
2023-03-02T02:21:32.887Z,57.40
2023-03-02T02:26:42.397Z,57.58
2023-03-02T02:31:49.001Z,57.83
2023-03-02T02:36:56.981Z,57.96
2023-03-02T02:42:05.180Z,57.89
2023-03-02T02:47:17.420Z,57.92
2023-03-02T02:52:24.507Z,57.95
2023-03-02T02:57:31.495Z,58.12
2023-03-02T03:02:40.854Z,58.21
2023-03-02T03:07:44.121Z,58.28
2023-03-02T03:12:48.816Z,58.35
2023-03-02T03:17:55.970Z,58.38
2023-03-02T03:23:00.787Z,58.37
2023-03-02T03:28:07.256Z,58.59
2023-03-02T03:33:11.961Z,58.49
2023-03-02T03:38:16.029Z,58.65
2023-03-02T03:43:23.844Z,58.72
2023-03-02T03:48:29.608Z,58.76
2023-03-02T03:53:32.486Z,58.94
2023-03-02T03:58:37.532Z,59.01
2023-03-02T04:03:40.947Z,59.05
2023-03-02T04:08:43.750Z,59.07
2023-03-02T04:13:48.830Z,59.19
2023-03-02T04:18:51.947Z,59.33
2023-03-02T04:23:55.447Z,59.49
2023-03-02T04:29:00.605Z,59.59
2023-03-02T04:34:05.030Z,59.66
2023-03-02T04:39:10.185Z,59.60
2023-03-02T04:44:15.342Z,59.53
2023-03-02T04:49:20.178Z,59.37
2023-03-02T04:54:26.878Z,59.21
2023-03-02T04:59:31.105Z,59.24
2023-03-02T05:04:34.494Z,59.16
2023-03-02T05:09:37.358Z,59.15
2023-03-02T05:14:41.470Z,59.13
2023-03-02T05:19:44.401Z,59.05
2023-03-02T05:24:47.158Z,59.08
2023-03-02T05:29:51.475Z,59.16
2023-03-02T05:34:54.268Z,59.09
2023-03-02T05:39:57.045Z,59.02
2023-03-02T05:45:01.303Z,59.22
2023-03-02T05:50:04.487Z,58.96
2023-03-02T05:55:08.429Z,59.02
2023-03-02T06:00:14.958Z,59.06
2023-03-02T06:05:19.602Z,59.11
2023-03-02T06:10:23.001Z,59.03
2023-03-02T06:15:29.714Z,59.11
2023-03-02T06:20:32.540Z,59.09
2023-03-02T06:25:36.943Z,59.04
2023-03-02T06:30:41.093Z,59.23
2023-03-02T06:35:44.003Z,59.01
2023-03-02T06:40:47.686Z,59.12
2023-03-02T06:45:51.926Z,59.27
2023-03-02T06:50:54.975Z,59.05
2023-03-02T06:55:57.762Z,59.10
2023-03-02T07:01:01.989Z,59.15
2023-03-02T07:06:05.268Z,59.20
2023-03-02T07:11:11.536Z,59.08
2023-03-02T07:16:16.800Z,59.16
2023-03-02T07:21:19.788Z,59.11
2023-03-02T07:26:22.858Z,59.14
2023-03-02T07:31:27.042Z,59.12
2023-03-02T07:36:29.992Z,58.99
2023-03-02T07:41:33.267Z,58.92
2023-03-02T07:46:39.145Z,58.88
2023-03-02T07:51:42.097Z,58.91
2023-03-02T07:56:46.094Z,57.13
2023-03-02T08:01:50.613Z,40.70
2023-03-02T08:06:53.787Z,42.61
2023-03-02T08:11:56.664Z,41.31
2023-03-02T08:17:00.806Z,41.84
2023-03-02T08:22:03.799Z,43.05
2023-03-02T08:27:06.672Z,43.66
2023-03-02T08:32:11.118Z,44.48
2023-03-02T08:37:13.973Z,45.57
2023-03-02T08:42:17.840Z,46.15
2023-03-02T08:47:22.049Z,47.05
2023-03-02T08:52:24.873Z,47.56
2023-03-02T08:57:27.677Z,48.23
2023-03-02T09:02:31.824Z,48.60
2023-03-02T09:07:34.650Z,48.99
2023-03-02T09:12:37.619Z,49.14
2023-03-02T09:17:41.804Z,49.38
2023-03-02T09:22:48.608Z,49.61
2023-03-02T09:27:51.383Z,49.78
2023-03-02T09:32:55.830Z,49.88
2023-03-02T09:37:58.687Z,49.88
2023-03-02T09:43:30.309Z,50.04
2023-03-02T09:48:41.702Z,50.10
2023-03-02T09:53:52.378Z,50.32
2023-03-02T09:59:00.057Z,50.34
2023-03-02T10:04:16.537Z,50.29
2023-03-02T10:09:19.601Z,50.16
2023-03-02T10:14:28.069Z,50.03
2023-03-02T10:19:42.153Z,50.10
2023-03-02T10:24:51.269Z,50.25
2023-03-02T10:30:00.900Z,50.34
2023-03-02T10:35:17.211Z,50.42
2023-03-02T10:40:42.946Z,50.45
2023-03-02T10:45:46.386Z,50.76
2023-03-02T10:50:55.078Z,50.69
2023-03-02T10:55:57.884Z,50.56
2023-03-02T11:01:02.714Z,50.66
2023-03-02T11:06:22.453Z,50.81
2023-03-02T11:11:26.398Z,50.77
2023-03-02T11:16:33.294Z,50.86
2023-03-02T11:21:42.226Z,51.08
2023-03-02T11:26:48.371Z,51.03
2023-03-02T11:31:54.624Z,51.11
2023-03-02T11:37:05.233Z,42.35
2023-03-02T11:42:19.902Z,41.96
2023-03-02T11:47:24.230Z,44.14
2023-03-02T11:52:33.073Z,46.15
2023-03-02T11:57:40.099Z,48.29
2023-03-02T12:02:42.867Z,50.15
2023-03-02T12:07:58.692Z,51.74
2023-03-02T12:13:14.568Z,52.43
2023-03-02T12:18:47.433Z,52.25
2023-03-02T12:24:01.578Z,51.96
2023-03-02T12:29:08.507Z,51.48
2023-03-02T12:34:32.320Z,51.12
2023-03-02T12:40:01.489Z,51.41
2023-03-02T12:45:15.414Z,51.32
2023-03-02T12:50:21.943Z,51.19
2023-03-02T12:55:26.261Z,51.27
2023-03-02T13:00:31.142Z,51.37
2023-03-02T13:05:36.964Z,51.31
2023-03-02T13:10:43.065Z,51.47
2023-03-02T13:15:50.901Z,51.74
2023-03-02T13:20:54.657Z,52.67
2023-03-02T13:26:00.468Z,53.28
2023-03-02T13:31:05.623Z,53.61
2023-03-02T13:36:09.135Z,53.74
2023-03-02T13:41:23.041Z,54.02
2023-03-02T13:46:28.816Z,53.95
2023-03-02T13:51:34.680Z,55.25
2023-03-02T13:56:41.449Z,54.69
2023-03-02T14:01:44.758Z,54.26
2023-03-02T14:06:48.081Z,54.84
2023-03-02T14:11:55.941Z,52.59
2023-03-02T14:16:58.745Z,42.56
2023-03-02T14:22:01.530Z,40.75
2023-03-02T14:27:05.719Z,40.03
2023-03-02T14:32:11.711Z,40.27
2023-03-02T14:37:18.007Z,39.59
2023-03-02T14:42:22.971Z,39.49
2023-03-02T14:47:25.778Z,40.41
2023-03-02T14:52:34.039Z,40.47
2023-03-02T14:57:39.203Z,39.85
2023-03-02T15:02:42.228Z,41.81
2023-03-02T15:07:45.056Z,39.35
2023-03-02T15:12:49.316Z,40.93
2023-03-02T15:17:52.073Z,41.24
2023-03-02T15:22:54.851Z,39.74
2023-03-02T15:27:59.225Z,40.31
2023-03-02T15:33:01.984Z,40.08
2023-03-02T15:38:04.865Z,40.15
2023-03-02T15:43:09.261Z,39.50
2023-03-02T15:48:13.571Z,39.92
2023-03-02T15:53:16.528Z,39.37
2023-03-02T15:58:21.800Z,38.53
2023-03-02T16:03:25.033Z,39.89
2023-03-02T16:08:28.067Z,41.19
2023-03-02T16:13:32.726Z,41.53
2023-03-02T16:18:35.662Z,42.31
2023-03-02T16:23:38.571Z,43.34
2023-03-02T16:28:43.189Z,43.79
2023-03-02T16:33:46.890Z,45.92
2023-03-02T16:38:49.745Z,47.25
2023-03-02T16:43:55.717Z,48.44
2023-03-02T16:48:59.606Z,49.62
2023-03-02T16:54:02.449Z,50.46
2023-03-02T16:59:06.584Z,51.04
2023-03-02T17:04:09.636Z,51.02
2023-03-02T17:09:13.604Z,52.43
2023-03-02T17:14:17.839Z,53.07
2023-03-02T17:19:20.840Z,52.67
2023-03-02T17:24:23.699Z,52.79
2023-03-02T17:29:27.932Z,52.39
2023-03-02T17:34:31.315Z,51.72
2023-03-02T17:39:34.077Z,51.74
2023-03-02T17:44:40.645Z,51.49
2023-03-02T17:49:45.122Z,51.27
2023-03-02T17:54:47.891Z,51.16
2023-03-02T17:59:52.074Z,51.02
2023-03-02T18:04:54.850Z,51.19
2023-03-02T18:09:57.910Z,51.23
2023-03-02T18:15:02.476Z,51.40
2023-03-02T18:20:05.995Z,51.33
2023-03-02T18:25:09.595Z,51.30
2023-03-02T18:30:14.689Z,51.18
2023-03-02T18:35:19.369Z,51.15
2023-03-02T18:40:22.370Z,51.24
2023-03-02T18:45:28.840Z,51.18
2023-03-02T18:50:31.764Z,51.17
2023-03-02T18:55:34.516Z,51.12
2023-03-02T19:00:38.722Z,51.09
2023-03-02T19:05:42.401Z,51.18
2023-03-02T19:10:45.244Z,51.22
2023-03-02T19:15:49.605Z,51.06
2023-03-02T19:20:54.263Z,51.67
2023-03-02T19:25:57.290Z,52.45
2023-03-02T19:31:04.578Z,52.95
2023-03-02T19:36:08.477Z,52.94
2023-03-02T19:41:13.919Z,53.05
2023-03-02T19:46:19.113Z,53.20
2023-03-02T19:51:22.044Z,53.27
2023-03-02T19:56:29.995Z,53.43
2023-03-02T20:01:34.343Z,53.50
2023-03-02T20:06:37.335Z,53.43
2023-03-02T20:11:40.460Z,53.55
2023-03-02T20:16:45.050Z,53.53
2023-03-02T20:21:48.250Z,53.56
2023-03-02T20:26:51.665Z,53.40
2023-03-02T20:31:58.241Z,53.58
2023-03-02T20:37:03.216Z,53.51
2023-03-02T20:42:08.029Z,53.45
2023-03-02T20:47:15.077Z,53.43
2023-03-02T20:52:18.855Z,53.47
2023-03-02T20:57:23.385Z,53.54
2023-03-02T21:02:28.164Z,53.38
2023-03-02T21:07:31.537Z,53.62
2023-03-02T21:12:34.932Z,53.49
2023-03-02T21:17:39.398Z,53.41
2023-03-02T21:22:42.481Z,53.45
2023-03-02T21:27:46.402Z,53.39
2023-03-02T21:32:51.265Z,52.09
2023-03-02T21:37:57.862Z,52.85
2023-03-02T21:43:01.771Z,53.16
2023-03-02T21:48:07.266Z,53.18
2023-03-02T21:53:10.278Z,53.22
2023-03-02T21:58:13.310Z,53.16
2023-03-02T22:03:17.840Z,53.15
2023-03-02T22:08:22.170Z,53.07
2023-03-02T22:13:27.181Z,52.99
2023-03-02T22:18:32.454Z,53.21
2023-03-02T22:23:35.199Z,53.23
2023-03-02T22:28:40.909Z,53.52
2023-03-02T22:33:45.084Z,53.52
2023-03-02T22:38:47.917Z,53.50
2023-03-02T22:43:53.025Z,53.47
2023-03-02T22:48:57.575Z,53.60
2023-03-02T22:54:01.697Z,53.59
2023-03-02T22:59:10.152Z,53.66
2023-03-02T23:04:19.486Z,53.63
2023-03-02T23:09:24.731Z,54.01
2023-03-02T23:14:30.105Z,54.18
2023-03-02T23:19:34.264Z,54.31
2023-03-02T23:24:37.427Z,54.63
2023-03-02T23:29:40.842Z,54.99
2023-03-02T23:34:45.164Z,55.22
2023-03-02T23:39:48.308Z,55.38
2023-03-02T23:44:51.157Z,55.56
2023-03-02T23:49:55.400Z,55.61
2023-03-02T23:54:59.068Z,55.80
